createdAt,value
2023-12-08T00:01:19.544Z,98798.06
2023-12-08T00:03:46.901Z,98797.16
2023-12-08T00:06:13.991Z,98787.59
2023-12-08T00:08:42.604Z,98775.41
2023-12-08T00:11:12.418Z,98778.88
2023-12-08T00:13:39.801Z,98772.81
2023-12-08T00:16:07.087Z,98762.53
2023-12-08T00:18:34.454Z,98758.13
2023-12-08T00:21:01.478Z,98758.13
2023-12-08T00:23:29.025Z,98755.44
2023-12-08T00:25:56.104Z,98750.25
2023-12-08T00:28:23.315Z,98749.31
2023-12-08T00:30:50.211Z,98758.88
2023-12-08T00:33:17.855Z,98751.97
2023-12-08T00:35:45.134Z,98743.19
2023-12-08T00:38:12.463Z,98736.31
2023-12-08T00:40:39.546Z,98738.97
2023-12-08T00:43:06.776Z,98746.81
2023-12-08T00:45:33.857Z,98734.66
2023-12-08T00:48:01.173Z,98726.81
2023-12-08T00:50:28.273Z,98731.13
2023-12-08T00:52:55.721Z,98722.38
2023-12-08T00:55:22.699Z,98732.75
2023-12-08T00:57:50.041Z,98725.81
2023-12-08T01:00:19.070Z,98718.84
2023-12-08T01:02:46.610Z,98712.78
2023-12-08T01:05:13.580Z,98713.63
2023-12-08T01:07:40.863Z,98711.13
2023-12-08T01:10:08.584Z,98714.59
2023-12-08T01:12:36.971Z,98717.25
2023-12-08T01:15:05.589Z,98725.09
2023-12-08T01:17:32.953Z,98718.97
2023-12-08T01:20:00.048Z,98719.88
2023-12-08T01:22:29.264Z,98719.81
2023-12-08T01:24:56.508Z,98719.72
2023-12-08T01:27:24.340Z,98714.63
2023-12-08T01:29:52.046Z,98711.16
2023-12-08T01:32:19.262Z,98706.78
2023-12-08T01:34:46.196Z,98703.44
2023-12-08T01:37:13.420Z,98704.25
2023-12-08T01:39:41.276Z,98696.63
2023-12-08T01:42:08.502Z,98695.66
2023-12-08T01:44:35.551Z,98692.28
2023-12-08T01:47:03.306Z,98686.25
2023-12-08T01:49:31.000Z,98685.31
2023-12-08T01:51:58.410Z,98678.47
2023-12-08T01:54:26.512Z,98684.63
2023-12-08T01:56:53.942Z,98677.78
2023-12-08T01:59:22.458Z,98683.91
2023-12-08T02:01:49.895Z,98680.47
2023-12-08T02:04:17.231Z,98677.03
2023-12-08T02:06:44.542Z,98677.09
2023-12-08T02:09:11.782Z,98681.50
2023-12-08T02:11:39.513Z,98684.97
2023-12-08T02:14:06.838Z,98679.84
2023-12-08T02:16:54.261Z,98688.50
2023-12-08T02:19:22.496Z,98680.75
2023-12-08T02:21:50.237Z,98677.19
2023-12-08T02:24:20.653Z,98673.78
2023-12-08T02:26:50.463Z,98668.63
2023-12-08T02:29:18.228Z,98670.34
2023-12-08T02:31:53.065Z,98661.84
2023-12-08T02:34:25.784Z,98659.22
2023-12-08T02:36:55.480Z,98660.84
2023-12-08T02:39:23.920Z,98666.03
2023-12-08T02:41:52.636Z,98656.47
2023-12-08T02:44:19.616Z,98660.81
2023-12-08T02:46:47.892Z,98653.84
2023-12-08T02:49:15.074Z,98653.84
2023-12-08T02:51:42.328Z,98648.66
2023-12-08T02:54:09.399Z,98651.22
2023-12-08T02:56:36.685Z,98655.63
2023-12-08T02:59:03.625Z,98647.81
2023-12-08T03:01:30.888Z,98646.06
2023-12-08T03:03:58.278Z,98647.81
2023-12-08T03:06:25.569Z,98640.00
2023-12-08T03:08:52.494Z,98639.16
2023-12-08T03:11:19.792Z,98637.41
2023-12-08T03:13:46.836Z,98626.16
2023-12-08T03:16:14.099Z,98623.56
2023-12-08T03:18:41.112Z,98620.94
2023-12-08T03:21:08.414Z,98611.44
2023-12-08T03:23:35.889Z,98601.09
2023-12-08T03:26:03.858Z,98601.09
2023-12-08T03:28:30.745Z,98583.75
2023-12-08T03:30:57.925Z,98593.34
2023-12-08T03:33:24.988Z,98585.53
2023-12-08T03:35:52.296Z,98582.91
2023-12-08T03:38:19.278Z,98591.63
2023-12-08T03:40:46.448Z,98587.38
2023-12-08T03:43:13.453Z,98592.59
2023-12-08T03:45:40.580Z,98596.97
2023-12-08T03:48:07.634Z,98597.00
2023-12-08T03:50:34.944Z,98603.97
2023-12-08T03:53:01.924Z,98601.38
2023-12-08T03:55:29.136Z,98586.59
2023-12-08T03:57:56.057Z,98576.22
2023-12-08T04:00:23.406Z,98557.28
2023-12-08T04:02:50.447Z,98546.88
2023-12-08T04:05:17.707Z,98519.16
2023-12-08T04:07:44.666Z,98515.75
2023-12-08T04:10:11.775Z,98517.47
2023-12-08T04:12:38.742Z,98507.94
2023-12-08T04:15:06.932Z,98489.75
2023-12-08T04:17:34.087Z,98493.25
2023-12-08T04:20:01.891Z,98496.72
2023-12-08T04:22:28.966Z,98510.56
2023-12-08T04:24:56.312Z,98521.00
2023-12-08T04:27:23.532Z,98515.91
2023-12-08T04:29:51.083Z,98515.09
2023-12-08T04:32:18.124Z,98521.16
2023-12-08T04:34:45.407Z,98526.31
2023-12-08T04:37:12.429Z,98522.88
2023-12-08T04:39:39.912Z,98528.94
2023-12-08T04:42:07.031Z,98537.75
2023-12-08T04:44:34.652Z,98536.06
2023-12-08T04:47:01.747Z,98534.34
2023-12-08T04:49:29.360Z,98530.09
2023-12-08T04:51:56.382Z,98531.91
2023-12-08T04:54:23.616Z,98531.09
2023-12-08T04:56:50.659Z,98534.63
2023-12-08T04:59:17.943Z,98526.84
2023-12-08T05:01:44.940Z,98530.38
2023-12-08T05:04:12.395Z,98532.13
2023-12-08T05:06:39.401Z,98546.84
2023-12-08T05:09:06.712Z,98545.06
2023-12-08T05:11:33.891Z,98549.41
2023-12-08T05:14:01.346Z,98551.13
2023-12-08T05:16:28.305Z,98546.81
2023-12-08T05:18:55.624Z,98534.72
2023-12-08T05:21:22.788Z,98520.84
2023-12-08T05:23:50.023Z,98510.56
2023-12-08T05:26:17.040Z,98514.13
2023-12-08T05:28:44.389Z,98521.06
2023-12-08T05:31:11.445Z,98523.78
2023-12-08T05:33:38.935Z,98523.78
2023-12-08T05:36:07.125Z,98533.34
2023-12-08T05:38:34.492Z,98535.00
2023-12-08T05:41:01.453Z,98542.81
2023-12-08T05:43:29.556Z,98537.63
2023-12-08T05:45:56.817Z,98545.44
2023-12-08T05:48:24.595Z,98550.69
2023-12-08T05:50:51.720Z,98545.53
2023-12-08T05:53:19.088Z,98548.19
2023-12-08T05:55:46.105Z,98534.41
2023-12-08T05:58:13.360Z,98531.81
2023-12-08T06:00:40.348Z,98533.56
2023-12-08T06:03:07.515Z,98531.03
2023-12-08T06:05:34.780Z,98533.66
2023-12-08T06:08:02.043Z,98519.81
2023-12-08T06:10:29.042Z,98513.81
2023-12-08T06:12:56.300Z,98523.31
2023-12-08T06:15:23.398Z,98516.41
2023-12-08T06:17:50.770Z,98512.97
2023-12-08T06:20:17.897Z,98506.06
2023-12-08T06:22:45.227Z,98515.56
2023-12-08T06:25:12.235Z,98517.31
2023-12-08T06:27:39.500Z,98521.63
2023-12-08T06:30:12.522Z,98508.63
2023-12-08T06:32:39.989Z,98509.47
2023-12-08T06:35:08.050Z,98509.50
2023-12-08T06:37:36.326Z,98509.47
2023-12-08T06:40:04.964Z,98508.59
2023-12-08T06:42:32.199Z,98514.66
2023-12-08T06:45:00.446Z,98518.94
2023-12-08T06:47:28.404Z,98531.88
2023-12-08T06:49:55.578Z,98521.50
2023-12-08T06:52:22.903Z,98526.69
2023-12-08T06:54:50.746Z,98527.59
2023-12-08T06:57:18.145Z,98525.00
2023-12-08T06:59:45.177Z,98527.59
2023-12-08T07:02:12.551Z,98522.41
2023-12-08T07:04:39.583Z,98530.19
2023-12-08T07:07:06.980Z,98522.41
2023-12-08T07:09:33.984Z,98526.72
2023-12-08T07:12:01.321Z,98525.00
2023-12-08T07:14:28.371Z,98530.19
2023-12-08T07:16:58.644Z,98525.84
2023-12-08T07:19:25.658Z,98523.25
2023-12-08T07:21:53.038Z,98514.63
2023-12-08T07:24:20.101Z,98515.47
2023-12-08T07:26:47.413Z,98513.75
2023-12-08T07:29:14.400Z,98508.56
2023-12-08T07:31:41.640Z,98519.81
2023-12-08T07:34:08.645Z,98518.91
2023-12-08T07:36:35.918Z,98524.94
2023-12-08T07:39:02.973Z,98534.41
2023-12-08T07:41:30.271Z,98539.56
2023-12-08T07:43:57.906Z,98543.88
2023-12-08T07:46:25.382Z,98539.50
2023-12-08T07:48:52.475Z,98536.06
2023-12-08T07:51:20.436Z,98528.28
2023-12-08T07:53:47.459Z,98530.06
2023-12-08T07:56:15.103Z,98524.91
2023-12-08T07:58:42.139Z,98524.06
2023-12-08T08:01:10.172Z,98527.47
2023-12-08T08:03:37.184Z,98515.41
2023-12-08T08:06:05.237Z,98515.41
2023-12-08T08:08:34.374Z,98529.22
2023-12-08T08:11:01.779Z,98523.16
2023-12-08T08:13:28.902Z,98523.13
2023-12-08T08:15:56.196Z,98530.03
2023-12-08T08:18:23.350Z,98523.91
2023-12-08T08:20:50.832Z,98521.25
2023-12-08T08:23:17.825Z,98526.44
2023-12-08T08:25:45.071Z,98520.38
2023-12-08T08:28:12.086Z,98510.94
2023-12-08T08:30:43.164Z,98499.69
2023-12-08T08:33:10.451Z,98486.75
2023-12-08T08:35:40.672Z,98490.19
2023-12-08T08:38:08.155Z,98488.44
2023-12-08T08:40:35.531Z,98496.19
2023-12-08T08:43:02.609Z,98490.91
2023-12-08T08:45:29.905Z,98498.66
2023-12-08T08:47:57.023Z,98490.78
2023-12-08T08:50:25.039Z,98490.78
2023-12-08T08:52:52.948Z,98480.34
2023-12-08T08:55:20.138Z,98481.16
2023-12-08T08:57:48.441Z,98483.66
2023-12-08T09:00:16.138Z,98494.03
2023-12-08T09:02:45.364Z,98493.94
2023-12-08T09:05:13.237Z,98505.13
2023-12-08T09:07:40.265Z,98513.78
2023-12-08T09:10:08.719Z,98504.22
2023-12-08T09:12:35.845Z,98503.31
2023-12-08T09:15:04.932Z,98504.94
2023-12-08T09:17:32.072Z,98499.03
2023-12-08T09:19:59.395Z,98517.09
2023-12-08T09:22:26.609Z,98517.16
2023-12-08T09:24:54.111Z,98506.81
2023-12-08T09:27:21.117Z,98510.25
2023-12-08T09:29:48.413Z,98500.69
2023-12-08T09:32:15.573Z,98497.09
2023-12-08T09:34:43.237Z,98503.03
2023-12-08T09:37:26.702Z,98502.94
2023-12-08T09:39:58.192Z,98491.53
2023-12-08T09:42:35.436Z,98493.25
2023-12-08T09:45:06.169Z,98488.88
2023-12-08T09:47:37.629Z,98502.13
2023-12-08T09:50:08.527Z,98492.69
2023-12-08T09:52:36.173Z,98496.88
2023-12-08T09:55:05.295Z,98489.84
2023-12-08T09:57:35.050Z,98503.59
2023-12-08T10:00:11.727Z,98494.88
2023-12-08T10:02:39.137Z,98486.28
2023-12-08T10:05:10.907Z,98485.31
2023-12-08T10:07:41.877Z,98476.66
2023-12-08T10:10:11.180Z,98473.16
2023-12-08T10:12:41.387Z,98471.44
2023-12-08T10:15:13.476Z,98468.88
2023-12-08T10:17:53.313Z,98466.34
2023-12-08T10:20:22.735Z,98456.06
2023-12-08T10:23:02.757Z,98451.56
2023-12-08T10:25:32.307Z,98454.09
2023-12-08T10:27:59.400Z,98444.75
2023-12-08T10:30:28.303Z,98446.44
2023-12-08T10:32:55.931Z,98454.84
2023-12-08T10:35:23.642Z,98439.22
2023-12-08T10:37:51.610Z,98438.31
2023-12-08T10:40:20.200Z,98440.03
2023-12-08T10:42:51.159Z,98428.75
2023-12-08T10:45:18.879Z,98426.88
2023-12-08T10:47:51.158Z,98428.59
2023-12-08T10:50:20.791Z,98433.78
2023-12-08T10:52:49.435Z,98437.03
2023-12-08T10:55:17.198Z,98434.41
2023-12-08T10:57:49.315Z,98428.38
2023-12-08T11:00:20.453Z,98421.50
2023-12-08T11:02:50.441Z,98412.84
2023-12-08T11:05:29.931Z,98411.00
2023-12-08T11:08:05.162Z,98416.16
2023-12-08T11:10:39.130Z,98422.91
2023-12-08T11:13:39.517Z,98421.91
2023-12-08T11:16:30.700Z,98418.44
2023-12-08T11:18:58.484Z,98420.28
2023-12-08T11:21:27.527Z,98419.31
2023-12-08T11:23:56.059Z,98413.34
2023-12-08T11:26:54.262Z,98404.72
2023-12-08T11:29:51.406Z,98399.50
2023-12-08T11:32:30.811Z,98398.63
2023-12-08T11:35:02.689Z,98395.84
2023-12-08T11:37:30.643Z,98395.72
2023-12-08T11:40:08.726Z,98390.53
2023-12-08T11:42:36.103Z,98384.34
2023-12-08T11:45:03.297Z,98381.81
2023-12-08T11:47:32.288Z,98372.28
2023-12-08T11:50:08.459Z,98372.38
2023-12-08T11:52:38.560Z,98368.94
2023-12-08T11:55:22.648Z,98379.31
2023-12-08T11:58:02.854Z,98388.81
2023-12-08T12:00:38.874Z,98397.50
2023-12-08T12:03:09.778Z,98390.56
2023-12-08T12:05:37.667Z,98387.97
2023-12-08T12:08:08.270Z,98388.03
2023-12-08T12:10:36.735Z,98381.16
2023-12-08T12:13:15.197Z,98378.53
2023-12-08T12:15:43.837Z,98373.97
2023-12-08T12:18:15.532Z,98373.88
2023-12-08T12:20:44.183Z,98365.06
2023-12-08T12:23:16.106Z,98363.44
2023-12-08T12:25:47.051Z,98368.63
2023-12-08T12:28:18.324Z,98367.72
2023-12-08T12:30:49.927Z,98365.91
2023-12-08T12:33:17.475Z,98372.81
2023-12-08T12:35:48.973Z,98365.69
2023-12-08T12:38:21.238Z,98359.53
2023-12-08T12:40:48.211Z,98370.94
2023-12-08T12:43:21.022Z,98379.78
2023-12-08T12:45:50.398Z,98377.22
2023-12-08T12:48:23.828Z,98378.81
2023-12-08T12:50:55.639Z,98383.94
2023-12-08T12:53:24.144Z,98380.44
2023-12-08T12:56:05.548Z,98388.19
2023-12-08T12:58:32.804Z,98379.50
2023-12-08T13:01:14.276Z,98369.09
2023-12-08T13:03:46.964Z,98370.75
2023-12-08T13:06:14.370Z,98368.28
2023-12-08T13:08:45.169Z,98369.13
2023-12-08T13:11:12.277Z,98376.09
2023-12-08T13:13:39.514Z,98378.72
2023-12-08T13:16:08.344Z,98376.91
2023-12-08T13:18:36.372Z,98378.78
2023-12-08T13:21:04.128Z,98370.13
2023-12-08T13:23:31.559Z,98372.59
2023-12-08T13:26:01.540Z,98364.75
2023-12-08T13:28:28.906Z,98378.81
2023-12-08T13:30:55.788Z,98381.34
2023-12-08T13:33:24.289Z,98390.81
2023-12-08T13:35:53.910Z,98395.13
2023-12-08T13:38:22.893Z,98399.56
2023-12-08T13:40:53.082Z,98396.00
2023-12-08T13:43:20.391Z,98406.47
2023-12-08T13:45:47.324Z,98400.50
2023-12-08T13:48:17.655Z,98399.66
2023-12-08T13:50:54.264Z,98398.75
2023-12-08T13:53:26.810Z,98401.38
2023-12-08T13:55:55.888Z,98402.25
2023-12-08T13:58:23.135Z,98389.44
2023-12-08T14:00:50.176Z,98402.50
2023-12-08T14:03:17.547Z,98398.06
2023-12-08T14:05:45.771Z,98399.00
2023-12-08T14:08:13.008Z,98395.53
2023-12-08T14:10:39.930Z,98395.50
2023-12-08T14:13:07.407Z,98395.53
2023-12-08T14:15:34.811Z,98393.69
2023-12-08T14:18:02.455Z,98390.25
2023-12-08T14:20:29.726Z,98396.31
2023-12-08T14:22:57.005Z,98400.66
2023-12-08T14:25:23.951Z,98407.56
2023-12-08T14:27:51.309Z,98405.03
2023-12-08T14:30:18.335Z,98399.00
2023-12-08T14:32:45.812Z,98392.97
2023-12-08T14:35:19.377Z,98402.47
2023-12-08T14:37:54.035Z,98400.72
2023-12-08T14:40:21.259Z,98392.91
2023-12-08T14:42:50.011Z,98394.66
2023-12-08T14:45:17.958Z,98399.00
2023-12-08T14:47:45.550Z,98395.56
2023-12-08T14:50:12.767Z,98392.97
2023-12-08T14:52:40.997Z,98391.22
2023-12-08T14:55:15.922Z,98389.50
2023-12-08T14:57:45.849Z,98396.47
2023-12-08T15:00:14.142Z,98391.31
2023-12-08T15:02:41.510Z,98401.72
2023-12-08T15:05:09.129Z,98393.88
2023-12-08T15:07:36.565Z,98397.38
2023-12-08T15:10:06.049Z,98400.81
2023-12-08T15:12:36.345Z,98395.56
2023-12-08T15:15:07.211Z,98405.94
2023-12-08T15:17:36.021Z,98411.97
2023-12-08T15:20:05.457Z,98408.50
2023-12-08T15:22:34.305Z,98403.41
2023-12-08T15:25:01.325Z,98405.28
2023-12-08T15:27:29.021Z,98406.19
2023-12-08T15:29:57.619Z,98407.00
2023-12-08T15:32:25.138Z,98403.44
2023-12-08T15:34:52.166Z,98410.56
2023-12-08T15:37:19.343Z,98413.28
2023-12-08T15:39:46.279Z,98411.50
2023-12-08T15:42:13.570Z,98408.06
2023-12-08T15:44:41.953Z,98408.09
2023-12-08T15:47:09.179Z,98415.03
2023-12-08T15:49:36.645Z,98412.56
2023-12-08T15:52:04.583Z,98409.06
2023-12-08T15:54:35.723Z,98409.06
2023-12-08T15:57:32.662Z,98404.66
2023-12-08T16:00:02.778Z,98408.13
2023-12-08T16:02:30.136Z,98415.06
2023-12-08T16:04:57.223Z,98416.81
2023-12-08T16:07:25.794Z,98410.72
2023-12-08T16:09:53.047Z,98405.53
2023-12-08T16:12:20.741Z,98409.00
2023-12-08T16:14:47.981Z,98419.53
2023-12-08T16:17:15.840Z,98417.78
2023-12-08T16:19:46.053Z,98419.56
2023-12-08T16:22:13.328Z,98419.53
2023-12-08T16:24:47.331Z,98410.94
2023-12-08T16:27:25.401Z,98414.47
2023-12-08T16:29:53.066Z,98417.06
2023-12-08T16:32:20.550Z,98412.78
2023-12-08T16:34:47.680Z,98423.16
2023-12-08T16:37:15.412Z,98418.75
2023-12-08T16:39:42.523Z,98426.50
2023-12-08T16:42:53.554Z,98417.09
2023-12-08T16:45:20.735Z,98412.91
2023-12-08T16:47:48.288Z,98416.34
2023-12-08T16:50:15.542Z,98412.75
2023-12-08T16:52:42.865Z,98411.97
2023-12-08T16:55:09.998Z,98417.06
2023-12-08T16:57:37.596Z,98421.41
2023-12-08T17:00:05.503Z,98418.91
2023-12-08T17:02:32.818Z,98423.22
2023-12-08T17:04:59.890Z,98425.97
2023-12-08T17:07:27.241Z,98426.06
2023-12-08T17:09:54.594Z,98420.88
2023-12-08T17:12:21.997Z,98424.25
2023-12-08T17:14:49.335Z,98432.22
2023-12-08T17:17:20.377Z,98436.56
2023-12-08T17:19:48.658Z,98433.03
2023-12-08T17:22:17.332Z,98426.84
2023-12-08T17:24:44.333Z,98427.75
2023-12-08T17:27:11.912Z,98430.47
2023-12-08T17:29:38.915Z,98434.66
2023-12-08T17:32:06.293Z,98436.22
2023-12-08T17:34:33.427Z,98439.81
2023-12-08T17:37:00.782Z,98446.66
2023-12-08T17:39:27.999Z,98444.88
2023-12-08T17:41:55.352Z,98445.84
2023-12-08T17:44:22.324Z,98457.16
2023-12-08T17:46:49.613Z,98459.69
2023-12-08T17:49:16.661Z,98458.88
2023-12-08T17:51:44.011Z,98458.78
2023-12-08T17:54:10.986Z,98460.50
2023-12-08T17:56:38.216Z,98453.59
2023-12-08T17:59:05.135Z,98452.75
2023-12-08T18:01:32.412Z,98457.94
2023-12-08T18:03:59.414Z,98456.13
2023-12-08T18:06:27.300Z,98457.84
2023-12-08T18:09:31.370Z,98458.09
2023-12-08T18:11:58.876Z,98463.50
2023-12-08T18:14:53.043Z,98464.28
2023-12-08T18:17:53.376Z,98467.59
2023-12-08T18:20:20.744Z,98471.94
2023-12-08T18:22:47.930Z,98480.72
2023-12-08T18:25:15.016Z,98490.25
2023-12-08T18:27:57.413Z,98481.47
2023-12-08T18:30:45.808Z,98486.63
2023-12-08T18:33:18.581Z,98490.91
2023-12-08T18:35:45.645Z,98481.31
2023-12-08T18:38:13.110Z,98487.47
2023-12-08T18:40:40.063Z,98489.25
2023-12-08T18:43:07.277Z,98490.16
2023-12-08T18:45:34.395Z,98493.53
2023-12-08T18:48:48.787Z,98492.66
2023-12-08T18:51:16.927Z,98490.94
2023-12-08T18:53:44.838Z,98497.88
2023-12-08T18:56:11.850Z,98496.81
2023-12-08T18:58:39.117Z,98494.19
2023-12-08T19:01:07.183Z,98490.66
2023-12-08T19:07:05.824Z,98488.47
2023-12-08T19:09:32.976Z,98486.84
2023-12-08T19:12:03.947Z,98488.53
2023-12-08T19:14:31.670Z,98484.31
2023-12-08T19:16:58.988Z,98486.91
2023-12-08T19:19:36.374Z,98487.72
2023-12-08T19:22:04.099Z,98492.06
2023-12-08T19:24:31.951Z,98491.25
2023-12-08T19:27:35.117Z,98486.03
2023-12-08T19:30:02.239Z,98497.22
2023-12-08T19:32:38.990Z,98497.16
2023-12-08T19:35:07.922Z,98496.38
2023-12-08T19:37:35.342Z,98489.56
2023-12-08T19:40:21.065Z,98499.16
2023-12-08T19:43:32.098Z,98498.28
2023-12-08T19:45:59.713Z,98487.06
2023-12-08T19:48:27.910Z,98492.31
2023-12-08T19:50:55.161Z,98487.13
2023-12-08T19:56:12.066Z,98488.06
2023-12-08T19:59:04.253Z,98488.03
2023-12-08T20:01:31.284Z,98494.09
2023-12-08T20:03:59.045Z,98497.56
2023-12-08T20:06:26.437Z,98497.53
2023-12-08T20:08:53.790Z,98501.84
2023-12-08T20:12:07.201Z,98501.78
2023-12-08T20:14:36.636Z,98505.38
2023-12-08T20:17:05.117Z,98504.50
2023-12-08T20:19:32.851Z,98511.38
2023-12-08T20:22:49.412Z,98516.50
2023-12-08T20:25:18.754Z,98519.94
2023-12-08T20:31:23.925Z,98514.63
2023-12-08T20:34:39.452Z,98514.53
2023-12-08T20:37:06.779Z,98521.53
2023-12-08T20:39:33.739Z,98517.28
2023-12-08T20:42:01.106Z,98523.44
2023-12-08T20:44:28.088Z,98523.50
2023-12-08T20:46:57.467Z,98519.91
2023-12-08T20:49:24.638Z,98521.59
2023-12-08T20:51:51.995Z,98523.31
2023-12-08T20:54:19.169Z,98522.69
2023-12-08T20:56:46.580Z,98527.00
2023-12-08T20:59:13.606Z,98527.91
2023-12-08T21:01:41.333Z,98532.16
2023-12-08T21:04:08.637Z,98533.91
2023-12-08T21:06:36.102Z,98535.63
2023-12-08T21:09:03.521Z,98529.50
2023-12-08T21:11:31.463Z,98531.31
2023-12-08T21:14:00.379Z,98529.50
2023-12-08T21:16:27.693Z,98536.50
2023-12-08T21:18:54.931Z,98530.53
2023-12-08T21:21:22.535Z,98530.41
2023-12-08T21:23:49.787Z,98530.41
2023-12-08T21:26:17.246Z,98543.38
2023-12-08T21:28:44.448Z,98541.56
2023-12-08T21:31:11.702Z,98538.09
2023-12-08T21:33:39.297Z,98539.84
2023-12-08T21:36:06.825Z,98541.72
2023-12-08T21:38:33.834Z,98545.16
2023-12-08T21:41:01.082Z,98549.41
2023-12-08T21:43:28.184Z,98546.75
2023-12-08T21:45:55.531Z,98545.94
2023-12-08T21:48:22.930Z,98545.91
2023-12-08T21:50:50.367Z,98550.22
2023-12-08T21:53:17.442Z,98546.75
2023-12-08T21:55:45.366Z,98552.91
2023-12-08T21:58:12.444Z,98559.81
2023-12-08T22:00:40.440Z,98551.19
2023-12-08T22:03:07.889Z,98558.13
2023-12-08T22:05:35.335Z,98558.13
2023-12-08T22:08:02.451Z,98552.91
2023-12-08T22:10:29.657Z,98562.50
2023-12-08T22:12:56.577Z,98560.78
2023-12-08T22:15:23.918Z,98564.19
2023-12-08T22:17:51.149Z,98555.50
2023-12-08T22:20:18.451Z,98558.19
2023-12-08T22:22:45.562Z,98559.00
2023-12-08T22:25:12.908Z,98567.59
2023-12-08T22:27:39.979Z,98568.41
2023-12-08T22:30:08.297Z,98564.19
2023-12-08T22:33:02.168Z,98561.59
2023-12-08T22:35:29.569Z,98553.81
2023-12-08T22:37:56.619Z,98564.22
2023-12-08T22:40:23.767Z,98559.94
2023-12-08T22:42:50.916Z,98559.09
2023-12-08T22:45:18.178Z,98559.00
2023-12-08T22:47:45.218Z,98563.31
2023-12-08T22:50:12.777Z,98560.69
2023-12-08T22:52:39.952Z,98559.75
2023-12-08T22:55:08.404Z,98562.34
2023-12-08T22:57:35.543Z,98569.28
2023-12-08T23:00:03.163Z,98568.50
2023-12-08T23:02:30.403Z,98570.22
2023-12-08T23:04:57.739Z,98575.44
2023-12-08T23:07:24.777Z,98577.16
2023-12-08T23:09:52.049Z,98573.75
2023-12-08T23:12:19.045Z,98575.47
2023-12-08T23:14:46.290Z,98581.44
2023-12-08T23:17:13.190Z,98574.56
2023-12-08T23:19:41.631Z,98578.81
2023-12-08T23:22:08.852Z,98574.50
2023-12-08T23:24:36.162Z,98567.59
2023-12-08T23:27:03.306Z,98566.69
2023-12-08T23:29:30.566Z,98570.16
2023-12-08T23:31:57.625Z,98572.75
2023-12-08T23:34:25.221Z,98559.78
2023-12-08T23:36:52.349Z,98570.09
2023-12-08T23:39:19.777Z,98565.72
2023-12-08T23:41:46.880Z,98573.50
2023-12-08T23:44:14.339Z,98569.13
2023-12-08T23:46:41.364Z,98570.03
2023-12-08T23:49:08.911Z,98570.03
2023-12-08T23:51:36.238Z,98569.16
2023-12-08T23:54:03.649Z,98577.91
2023-12-08T23:56:30.728Z,98578.75
2023-12-08T23:58:57.964Z,98571.75
